createdAt,value
2023-05-14T00:02:24.746Z,54.54
2023-05-14T00:04:53.860Z,56.17
2023-05-14T00:07:22.040Z,58.17
2023-05-14T00:09:51.617Z,57.37
2023-05-14T00:12:19.890Z,55.19
2023-05-14T00:14:48.106Z,58.45
2023-05-14T00:17:16.288Z,59.80
2023-05-14T00:19:44.688Z,56.88
2023-05-14T00:22:12.926Z,57.95
2023-05-14T00:24:41.331Z,59.66
2023-05-14T00:27:10.951Z,59.06
2023-05-14T00:29:39.174Z,60.53
2023-05-14T00:32:08.179Z,58.25
2023-05-14T00:34:36.636Z,59.57
2023-05-14T00:37:04.975Z,57.90
2023-05-14T00:39:33.236Z,54.97
2023-05-14T00:42:01.477Z,58.17
2023-05-14T00:44:31.076Z,56.40
2023-05-14T00:46:59.800Z,58.55
2023-05-14T00:49:28.726Z,60.83
2023-05-14T00:51:59.033Z,57.51
2023-05-14T00:54:27.509Z,56.89
2023-05-14T00:56:56.129Z,57.42
2023-05-14T00:59:24.330Z,60.02
2023-05-14T01:01:54.108Z,56.12
2023-05-14T01:04:22.397Z,58.79
2023-05-14T01:06:57.550Z,58.68
2023-05-14T01:09:29.313Z,58.21
2023-05-14T01:12:03.963Z,61.04
2023-05-14T01:14:37.160Z,61.70
2023-05-14T01:17:07.756Z,57.83
2023-05-14T01:19:37.271Z,55.81
2023-05-14T01:22:06.907Z,58.47
2023-05-14T01:24:35.306Z,59.05
2023-05-14T01:27:08.300Z,57.58
2023-05-14T01:29:38.919Z,55.17
2023-05-14T01:32:07.810Z,56.22
2023-05-14T01:34:37.733Z,58.10
2023-05-14T01:37:07.852Z,55.56
2023-05-14T01:39:38.814Z,54.91
2023-05-14T01:42:07.993Z,53.08
2023-05-14T01:44:36.717Z,51.29
2023-05-14T01:47:05.107Z,51.63
2023-05-14T01:49:33.385Z,55.57
2023-05-14T01:52:01.653Z,55.50
2023-05-14T01:54:31.203Z,52.10
2023-05-14T01:56:59.414Z,56.75
2023-05-14T01:59:29.804Z,55.10
2023-05-14T02:01:58.110Z,54.89
2023-05-14T02:04:26.537Z,55.82
2023-05-14T02:06:54.836Z,56.02
2023-05-14T02:09:23.186Z,54.01
2023-05-14T02:11:52.752Z,54.86
2023-05-14T02:14:20.969Z,55.52
2023-05-14T02:16:51.036Z,55.53
2023-05-14T02:19:20.214Z,55.55
2023-05-14T02:21:49.371Z,55.67
2023-05-14T02:24:17.642Z,55.06
2023-05-14T02:26:45.857Z,54.15
2023-05-14T02:29:15.448Z,53.42
2023-05-14T02:31:43.709Z,55.08
2023-05-14T02:34:12.036Z,54.83
2023-05-14T02:36:40.207Z,57.90
2023-05-14T02:39:08.458Z,56.45
2023-05-14T02:41:36.680Z,59.65
2023-05-14T02:44:05.006Z,56.39
2023-05-14T02:46:34.735Z,55.11
2023-05-14T02:49:03.275Z,58.20
2023-05-14T02:51:31.512Z,55.60
2023-05-14T02:53:59.758Z,53.53
2023-05-14T02:56:28.033Z,53.52
2023-05-14T02:58:56.205Z,54.44
2023-05-14T03:01:25.116Z,53.67
2023-05-14T03:03:55.314Z,55.66
2023-05-14T03:06:23.601Z,54.45
2023-05-14T03:08:51.892Z,53.16
2023-05-14T03:11:20.115Z,54.76
2023-05-14T03:13:48.393Z,53.15
2023-05-14T03:16:16.759Z,51.52
2023-05-14T03:18:45.132Z,53.79
2023-05-14T03:21:14.738Z,52.91
2023-05-14T03:23:42.957Z,53.36
2023-05-14T03:26:11.198Z,52.60
2023-05-14T03:28:39.427Z,51.82
2023-05-14T03:31:07.746Z,52.39
2023-05-14T03:33:36.192Z,52.76
2023-05-14T03:36:04.894Z,51.30
2023-05-14T03:38:34.460Z,51.44
2023-05-14T03:41:02.708Z,53.90
2023-05-14T03:43:30.915Z,54.48
2023-05-14T03:45:59.116Z,53.38
2023-05-14T03:48:27.456Z,53.91
2023-05-14T03:50:55.874Z,53.41
2023-05-14T03:53:24.140Z,53.27
2023-05-14T03:55:53.860Z,51.99
2023-05-14T03:58:22.057Z,53.83
2023-05-14T04:00:50.338Z,53.74
2023-05-14T04:03:18.682Z,53.06
2023-05-14T04:05:47.171Z,54.63
2023-05-14T04:08:15.455Z,52.85
2023-05-14T04:10:44.106Z,52.32
2023-05-14T04:13:13.746Z,51.14
2023-05-14T04:15:41.974Z,54.17
2023-05-14T04:18:10.260Z,55.09
2023-05-14T04:20:38.557Z,54.67
2023-05-14T04:23:06.822Z,55.22
2023-05-14T04:25:35.036Z,58.09
2023-05-14T04:28:03.398Z,60.15
2023-05-14T04:30:32.995Z,57.64
2023-05-14T04:33:01.313Z,60.19
2023-05-14T04:35:29.727Z,59.16
2023-05-14T04:37:57.950Z,55.51
2023-05-14T04:40:26.427Z,55.53
2023-05-14T04:42:54.975Z,52.76
2023-05-14T04:45:23.203Z,57.27
2023-05-14T04:47:52.825Z,56.69
2023-05-14T04:50:21.465Z,57.99
2023-05-14T04:52:49.885Z,61.53
2023-05-14T04:55:18.129Z,57.13
2023-05-14T04:57:46.478Z,56.02
2023-05-14T05:00:15.815Z,58.90
2023-05-14T05:02:44.158Z,54.15
2023-05-14T05:05:13.767Z,58.24
2023-05-14T05:07:42.039Z,57.85
2023-05-14T05:10:10.741Z,54.38
2023-05-14T05:12:39.099Z,56.11
2023-05-14T05:15:09.474Z,58.84
2023-05-14T05:17:38.116Z,57.80
2023-05-14T05:20:09.689Z,53.24
2023-05-14T05:22:39.273Z,59.23
2023-05-14T05:25:09.071Z,56.52
2023-05-14T05:27:37.368Z,56.75
2023-05-14T05:30:07.383Z,59.88
2023-05-14T05:32:36.213Z,59.17
2023-05-14T05:35:05.095Z,55.28
2023-05-14T05:37:33.473Z,53.39
2023-05-14T05:40:04.265Z,52.99
2023-05-14T05:42:32.503Z,53.23
2023-05-14T05:45:01.211Z,53.78
2023-05-14T05:47:30.129Z,54.42
2023-05-14T05:49:58.376Z,53.70
2023-05-14T05:52:26.703Z,53.85
2023-05-14T05:54:55.009Z,57.44
2023-05-14T05:57:27.045Z,56.84
2023-05-14T05:59:55.443Z,54.62
2023-05-14T06:02:25.138Z,60.95
2023-05-14T06:04:53.839Z,57.81
2023-05-14T06:07:22.091Z,54.56
2023-05-14T06:09:50.324Z,57.23
2023-05-14T06:12:18.570Z,57.19
2023-05-14T06:14:48.166Z,52.52
2023-05-14T06:17:16.401Z,55.00
2023-05-14T06:19:44.620Z,57.46
2023-05-14T06:22:12.906Z,54.42
2023-05-14T06:24:41.140Z,52.43
2023-05-14T06:27:09.524Z,57.51
2023-05-14T06:29:37.838Z,57.30
2023-05-14T06:32:08.767Z,55.37
2023-05-14T06:34:37.092Z,52.67
2023-05-14T06:37:07.064Z,54.06
2023-05-14T06:39:35.350Z,51.24
2023-05-14T06:42:03.596Z,50.58
2023-05-14T06:44:32.173Z,53.36
2023-05-14T06:47:00.344Z,50.13
2023-05-14T06:49:29.913Z,51.53
2023-05-14T06:51:58.172Z,56.38
2023-05-14T06:54:26.442Z,52.90
2023-05-14T06:56:54.662Z,53.34
2023-05-14T06:59:22.904Z,50.36
2023-05-14T07:01:51.304Z,48.64
2023-05-14T07:04:19.669Z,49.01
2023-05-14T07:06:49.257Z,50.52
2023-05-14T07:09:17.618Z,46.70
2023-05-14T07:11:45.903Z,47.34
2023-05-14T07:14:14.090Z,48.27
2023-05-14T07:16:42.793Z,46.68
2023-05-14T07:19:11.363Z,48.58
2023-05-14T07:21:39.704Z,48.18
2023-05-14T07:24:09.634Z,46.74
2023-05-14T07:26:37.851Z,45.20
2023-05-14T07:29:06.085Z,45.82
2023-05-14T07:31:34.887Z,46.59
2023-05-14T07:34:03.177Z,44.67
2023-05-14T07:36:31.576Z,44.55
2023-05-14T07:38:59.859Z,44.01
2023-05-14T07:41:29.493Z,45.89
2023-05-14T07:43:57.716Z,45.87
2023-05-14T07:46:25.953Z,46.36
2023-05-14T07:48:54.248Z,46.63
2023-05-14T07:51:23.020Z,46.03
2023-05-14T07:53:51.273Z,46.15
2023-05-14T07:56:20.011Z,45.32
2023-05-14T07:58:49.668Z,42.73
2023-05-14T08:01:17.947Z,43.38
2023-05-14T08:03:46.467Z,42.94
2023-05-14T08:06:14.827Z,42.74
2023-05-14T08:08:43.020Z,41.62
2023-05-14T08:11:11.266Z,41.07
2023-05-14T08:13:41.583Z,41.24
2023-05-14T08:16:11.340Z,39.44
2023-05-14T08:18:39.604Z,38.15
2023-05-14T08:21:07.812Z,39.95
2023-05-14T08:23:36.268Z,40.92
2023-05-14T08:26:04.527Z,39.03
2023-05-14T08:28:32.834Z,39.53
2023-05-14T08:31:01.143Z,40.09
2023-05-14T08:33:30.809Z,41.76
2023-05-14T08:36:00.615Z,42.06
2023-05-14T08:38:28.911Z,41.18
2023-05-14T08:40:58.557Z,42.61
2023-05-14T08:43:28.055Z,41.81
2023-05-14T08:46:00.096Z,44.39
2023-05-14T08:48:33.809Z,43.25
2023-05-14T08:51:02.966Z,44.39
2023-05-14T08:53:31.577Z,43.52
2023-05-14T08:56:02.088Z,42.64
2023-05-14T08:58:30.181Z,40.43
2023-05-14T09:00:58.437Z,40.55
2023-05-14T09:03:26.838Z,41.78
2023-05-14T09:05:58.615Z,42.01
2023-05-14T09:08:28.166Z,40.18
2023-05-14T09:10:56.400Z,40.60
2023-05-14T09:13:26.332Z,41.29
2023-05-14T09:15:56.234Z,41.63
2023-05-14T09:18:24.536Z,42.26
2023-05-14T09:20:53.119Z,44.01
2023-05-14T09:23:22.959Z,41.18
2023-05-14T09:25:51.150Z,41.18
2023-05-14T09:28:21.259Z,43.52
2023-05-14T09:30:52.668Z,41.17
2023-05-14T09:33:27.721Z,37.95
2023-05-14T09:35:59.270Z,38.67
2023-05-14T09:38:31.360Z,40.53
2023-05-14T09:41:00.150Z,40.51
2023-05-14T09:43:28.523Z,42.16
2023-05-14T09:45:56.791Z,39.65
2023-05-14T09:48:25.046Z,41.88
2023-05-14T09:50:53.499Z,42.73
2023-05-14T09:53:21.893Z,42.94
2023-05-14T09:55:51.583Z,41.96
2023-05-14T09:58:19.827Z,40.73
2023-05-14T10:00:48.544Z,41.20
2023-05-14T10:03:19.716Z,39.66
2023-05-14T10:05:50.296Z,43.79
2023-05-14T10:08:23.604Z,41.76
2023-05-14T10:10:55.412Z,40.20
2023-05-14T10:13:25.717Z,40.42
2023-05-14T10:15:58.746Z,39.98
2023-05-14T10:18:29.081Z,39.57
2023-05-14T10:21:04.957Z,38.26
2023-05-14T10:23:33.419Z,37.41
2023-05-14T10:26:03.187Z,39.02
2023-05-14T10:28:31.932Z,38.91
2023-05-14T10:31:01.014Z,39.82
2023-05-14T10:33:29.397Z,41.83
2023-05-14T10:36:00.932Z,37.77
2023-05-14T10:38:29.731Z,39.12
2023-05-14T10:41:00.062Z,39.87
2023-05-14T10:43:31.141Z,40.07
2023-05-14T10:45:59.901Z,37.79
2023-05-14T10:48:28.161Z,36.75
2023-05-14T10:50:57.786Z,38.54
2023-05-14T10:53:33.702Z,37.37
2023-05-14T10:56:05.796Z,36.99
2023-05-14T10:58:38.323Z,36.87
2023-05-14T11:01:07.463Z,36.88
2023-05-14T11:03:41.846Z,36.74
2023-05-14T11:06:10.961Z,35.33
2023-05-14T11:08:39.927Z,37.08
2023-05-14T11:11:09.522Z,36.48
2023-05-14T11:13:39.251Z,36.96
2023-05-14T11:18:41.735Z,35.91
2023-05-14T11:21:10.136Z,33.84
2023-05-14T11:23:38.668Z,34.05
2023-05-14T11:26:06.990Z,34.43
2023-05-14T11:28:35.673Z,35.02
2023-05-14T11:31:05.727Z,32.77
2023-05-14T11:33:33.952Z,33.97
2023-05-14T11:36:02.211Z,32.39
2023-05-14T11:38:30.436Z,33.83
2023-05-14T11:41:00.123Z,33.45
2023-05-14T11:43:29.403Z,29.91
2023-05-14T11:45:57.907Z,31.38
2023-05-14T11:48:27.537Z,31.64
2023-05-14T11:50:55.758Z,30.41
2023-05-14T11:53:27.370Z,30.02
2023-05-14T11:55:57.729Z,30.52
2023-05-14T11:58:26.369Z,29.41
2023-05-14T12:00:56.169Z,31.81
2023-05-14T12:03:26.394Z,30.43
2023-05-14T12:05:59.823Z,30.19
2023-05-14T12:08:29.167Z,30.96
2023-05-14T12:10:59.268Z,30.26
2023-05-14T12:13:28.111Z,29.34
2023-05-14T12:15:57.735Z,31.05
2023-05-14T12:18:26.451Z,30.78
2023-05-14T12:20:54.776Z,32.42
2023-05-14T12:23:27.802Z,31.37
2023-05-14T12:25:56.077Z,29.66
2023-05-14T12:28:24.573Z,30.94
2023-05-14T12:30:57.657Z,30.12
2023-05-14T12:33:27.078Z,29.57
2023-05-14T12:35:58.987Z,30.32
2023-05-14T12:38:30.222Z,30.21
2023-05-14T12:40:58.378Z,30.63
2023-05-14T12:43:31.436Z,31.03
2023-05-14T12:45:59.673Z,29.72
2023-05-14T12:48:27.881Z,29.82
2023-05-14T12:50:56.082Z,32.09
2023-05-14T12:53:24.296Z,30.71
2023-05-14T12:55:53.918Z,30.00
2023-05-14T12:58:22.085Z,29.17
2023-05-14T13:00:50.372Z,29.42
2023-05-14T13:03:18.800Z,30.38
2023-05-14T13:05:46.997Z,31.04
2023-05-14T13:08:17.748Z,31.86
2023-05-14T13:10:46.059Z,31.08
2023-05-14T13:13:16.579Z,32.69
2023-05-14T13:15:46.714Z,34.15
2023-05-14T13:18:15.076Z,31.49
2023-05-14T13:20:43.536Z,31.39
2023-05-14T13:23:11.742Z,30.28
2023-05-14T13:25:39.947Z,32.18
2023-05-14T13:28:09.647Z,31.61
2023-05-14T13:30:39.252Z,32.54
2023-05-14T13:33:07.596Z,30.36
2023-05-14T13:35:36.052Z,30.88
2023-05-14T13:38:04.509Z,31.30
2023-05-14T13:40:32.779Z,31.65
2023-05-14T13:43:01.038Z,31.22
2023-05-14T13:45:29.320Z,30.19
2023-05-14T13:47:59.473Z,31.13
2023-05-14T13:50:27.729Z,32.61
2023-05-14T13:52:55.966Z,32.62
2023-05-14T13:55:24.434Z,31.87
2023-05-14T13:57:52.888Z,33.42
2023-05-14T14:00:21.443Z,30.42
2023-05-14T14:02:49.674Z,29.61
2023-05-14T14:05:19.512Z,28.92
2023-05-14T14:07:49.818Z,28.72
2023-05-14T14:10:19.782Z,29.43
2023-05-14T14:12:48.236Z,28.89
2023-05-14T14:15:16.581Z,30.37
2023-05-14T14:17:44.796Z,28.41
2023-05-14T14:20:13.675Z,28.51
2023-05-14T14:22:44.378Z,27.81
2023-05-14T14:25:13.373Z,29.62
2023-05-14T14:27:41.850Z,29.31
2023-05-14T14:30:16.400Z,29.26
2023-05-14T14:32:45.427Z,30.18
2023-05-14T14:35:14.797Z,29.53
2023-05-14T14:37:48.571Z,30.58
2023-05-14T14:40:17.197Z,29.80
2023-05-14T14:42:45.617Z,30.64
2023-05-14T14:45:13.990Z,30.49
2023-05-14T14:47:44.850Z,30.67
2023-05-14T14:50:13.650Z,29.07
2023-05-14T14:52:45.417Z,28.40
2023-05-14T14:55:15.621Z,27.23
2023-05-14T14:57:43.869Z,28.07
2023-05-14T15:00:13.741Z,29.17
2023-05-14T15:02:43.083Z,28.20
2023-05-14T15:05:11.393Z,29.08
2023-05-14T15:07:39.584Z,28.24
2023-05-14T15:10:08.780Z,28.95
2023-05-14T15:12:38.388Z,36.83
2023-05-14T15:15:07.828Z,38.52
2023-05-14T15:17:36.093Z,42.26
2023-05-14T15:20:04.589Z,42.30
2023-05-14T15:22:32.917Z,42.61
2023-05-14T15:25:01.657Z,42.07
2023-05-14T15:27:29.898Z,44.58
2023-05-14T15:29:59.502Z,46.13
2023-05-14T15:32:28.450Z,50.87
2023-05-14T15:34:56.785Z,56.05
2023-05-14T15:37:25.390Z,61.57
2023-05-14T15:39:53.690Z,59.75
2023-05-14T15:42:21.984Z,65.90
2023-05-14T15:44:50.276Z,65.17
2023-05-14T15:47:19.884Z,66.31
2023-05-14T15:49:48.130Z,64.35
2023-05-14T15:52:16.345Z,68.50
2023-05-14T15:54:47.096Z,63.32
2023-05-14T15:57:16.918Z,61.63
2023-05-14T15:59:46.185Z,65.17
2023-05-14T16:02:15.437Z,68.02
2023-05-14T16:04:45.264Z,71.70
2023-05-14T16:07:13.535Z,74.24
2023-05-14T16:09:41.832Z,82.58
2023-05-14T16:12:10.271Z,81.67
2023-05-14T16:14:41.252Z,79.97
2023-05-14T16:17:10.175Z,85.61
2023-05-14T16:19:39.808Z,87.47
2023-05-14T16:22:09.481Z,82.22
2023-05-14T16:24:37.714Z,87.95
2023-05-14T16:27:06.415Z,96.16
2023-05-14T16:29:34.610Z,87.07
2023-05-14T16:32:03.014Z,81.98
2023-05-14T16:34:31.408Z,79.70
2023-05-14T16:37:00.697Z,69.73
2023-05-14T16:39:30.325Z,69.11
2023-05-14T16:41:58.562Z,66.31
2023-05-14T16:44:26.754Z,60.08
2023-05-14T16:46:55.006Z,62.82
2023-05-14T16:49:23.312Z,61.88
2023-05-14T16:51:51.552Z,62.23
2023-05-14T16:54:20.005Z,59.10
2023-05-14T16:56:49.619Z,56.42
2023-05-14T16:59:18.134Z,57.74
2023-05-14T17:01:47.940Z,57.94
2023-05-14T17:04:16.302Z,64.02
2023-05-14T17:06:44.628Z,59.54
2023-05-14T17:09:12.861Z,60.38
2023-05-14T17:11:41.148Z,63.33
2023-05-14T17:14:10.749Z,57.10
2023-05-14T17:16:40.556Z,57.55
2023-05-14T17:19:08.869Z,53.20
2023-05-14T17:21:37.353Z,57.56
2023-05-14T17:24:05.982Z,61.08
2023-05-14T17:26:34.321Z,58.70
2023-05-14T17:29:02.789Z,64.25
2023-05-14T17:31:32.404Z,58.38
2023-05-14T17:34:00.752Z,54.26
2023-05-14T17:36:29.431Z,51.14
2023-05-14T17:38:57.652Z,52.33
2023-05-14T17:41:25.887Z,58.24
2023-05-14T17:43:54.144Z,50.72
2023-05-14T17:46:22.367Z,52.53
2023-05-14T17:48:51.981Z,53.66
2023-05-14T17:51:20.208Z,57.81
2023-05-14T17:53:48.414Z,51.90
2023-05-14T17:56:18.544Z,50.20
2023-05-14T17:58:46.926Z,51.10
2023-05-14T18:01:15.248Z,49.92
2023-05-14T18:03:43.629Z,47.53
2023-05-14T18:06:13.390Z,47.83
2023-05-14T18:08:41.749Z,47.34
2023-05-14T18:11:10.013Z,47.17
2023-05-14T18:13:38.321Z,45.87
2023-05-14T18:16:06.760Z,47.01
2023-05-14T18:18:35.065Z,46.60
2023-05-14T18:21:03.607Z,46.39
2023-05-14T18:23:33.225Z,46.52
2023-05-14T18:26:01.498Z,48.24
2023-05-14T18:28:29.786Z,48.79
2023-05-14T18:30:58.067Z,48.28
2023-05-14T18:33:26.434Z,46.25
2023-05-14T18:35:54.672Z,47.34
2023-05-14T18:38:22.940Z,48.21
2023-05-14T18:40:52.660Z,48.13
2023-05-14T18:43:20.919Z,46.77
2023-05-14T18:45:49.186Z,48.39
2023-05-14T18:48:17.432Z,47.38
2023-05-14T18:50:45.656Z,46.03
2023-05-14T18:53:13.968Z,46.05
2023-05-14T18:55:42.187Z,46.27
2023-05-14T18:58:12.072Z,46.52
2023-05-14T19:00:40.305Z,46.13
2023-05-14T19:03:08.787Z,45.15
2023-05-14T19:05:37.124Z,45.04
2023-05-14T19:08:05.922Z,46.03
2023-05-14T19:10:34.785Z,44.74
2023-05-14T19:13:03.537Z,45.01
2023-05-14T19:15:33.229Z,45.00
2023-05-14T19:18:04.321Z,45.21
2023-05-14T19:20:32.548Z,44.88
2023-05-14T19:23:00.793Z,44.56
2023-05-14T19:25:29.250Z,45.34
2023-05-14T19:27:57.815Z,44.43
2023-05-14T19:30:26.053Z,44.64
2023-05-14T19:32:55.711Z,45.18
2023-05-14T19:35:24.276Z,45.40
2023-05-14T19:37:52.674Z,45.53
2023-05-14T19:40:21.001Z,45.22
2023-05-14T19:42:49.248Z,45.31
2023-05-14T19:45:17.784Z,45.36
2023-05-14T19:47:46.146Z,45.79
2023-05-14T19:50:15.826Z,45.91
2023-05-14T19:52:44.022Z,45.95
2023-05-14T19:55:12.251Z,45.78
2023-05-14T19:57:40.487Z,45.80
2023-05-14T20:00:10.516Z,45.64
2023-05-14T20:05:27.556Z,45.98
2023-05-14T20:07:55.901Z,45.65
2023-05-14T20:10:24.516Z,45.37
2023-05-14T20:12:52.800Z,45.35
2023-05-14T20:15:21.054Z,45.47
2023-05-14T20:17:49.445Z,45.69
2023-05-14T20:20:17.946Z,45.34
2023-05-14T20:22:47.565Z,45.48
2023-05-14T20:25:16.294Z,45.81
2023-05-14T20:27:44.627Z,45.78
2023-05-14T20:30:13.185Z,46.11
2023-05-14T20:32:41.438Z,45.80
2023-05-14T20:35:10.064Z,46.17
2023-05-14T20:37:38.312Z,46.56
2023-05-14T20:40:12.442Z,47.98
2023-05-14T20:42:40.763Z,46.83
2023-05-14T20:45:10.054Z,46.41
2023-05-14T20:47:38.429Z,47.05
2023-05-14T20:50:07.857Z,46.49
2023-05-14T20:52:36.146Z,46.49
2023-05-14T20:55:04.645Z,46.65
2023-05-14T20:57:34.361Z,46.76
2023-05-14T21:00:03.375Z,46.41
2023-05-14T21:02:31.697Z,48.30
2023-05-14T21:05:00.009Z,50.13
2023-05-14T21:07:29.002Z,49.91
2023-05-14T21:09:57.305Z,49.48
2023-05-14T21:12:25.566Z,49.04
2023-05-14T21:14:55.167Z,48.68
2023-05-14T21:17:23.434Z,48.63
2023-05-14T21:19:51.682Z,48.96
2023-05-14T21:22:19.948Z,48.80
2023-05-14T21:24:48.166Z,48.16
2023-05-14T21:27:16.370Z,47.87
2023-05-14T21:29:46.345Z,47.38
2023-05-14T21:32:15.994Z,47.30
2023-05-14T21:34:44.397Z,46.98
2023-05-14T21:37:12.767Z,46.62
2023-05-14T21:39:40.983Z,46.06
2023-05-14T21:42:10.189Z,45.56
2023-05-14T21:44:38.398Z,45.01
2023-05-14T21:47:07.018Z,44.48
2023-05-14T21:49:36.734Z,44.39
2023-05-14T21:52:05.545Z,44.50
2023-05-14T21:54:33.760Z,44.30
2023-05-14T21:57:02.572Z,44.47
2023-05-14T21:59:30.769Z,45.24
2023-05-14T22:04:30.124Z,45.28
2023-05-14T22:06:59.711Z,45.53
2023-05-14T22:09:27.931Z,45.47
2023-05-14T22:11:56.203Z,45.35
2023-05-14T22:14:26.464Z,45.55
2023-05-14T22:16:54.737Z,45.83
2023-05-14T22:19:23.079Z,46.18
2023-05-14T22:21:51.301Z,46.41
2023-05-14T22:24:20.874Z,46.74
2023-05-14T22:26:49.099Z,47.05
2023-05-14T22:29:17.344Z,48.51
2023-05-14T22:31:45.757Z,47.75
2023-05-14T22:34:13.991Z,47.46
2023-05-14T22:36:42.354Z,47.68
2023-05-14T22:39:12.694Z,48.28
2023-05-14T22:41:43.179Z,49.26
2023-05-14T22:44:11.426Z,48.57
2023-05-14T22:46:39.719Z,47.64
2023-05-14T22:49:07.980Z,47.10
2023-05-14T22:51:36.214Z,47.04
2023-05-14T22:54:04.551Z,47.34
2023-05-14T22:56:33.173Z,47.33
2023-05-14T22:59:02.758Z,46.93
2023-05-14T23:01:32.412Z,46.83
2023-05-14T23:04:00.700Z,47.11
2023-05-14T23:06:29.101Z,47.41
2023-05-14T23:08:57.419Z,47.89
2023-05-14T23:11:27.006Z,49.55
2023-05-14T23:13:55.746Z,50.57
2023-05-14T23:16:25.961Z,49.69
2023-05-14T23:18:54.495Z,51.45
2023-05-14T23:21:23.160Z,51.15
2023-05-14T23:23:51.370Z,50.89
2023-05-14T23:26:19.645Z,50.06
2023-05-14T23:28:48.251Z,49.39
2023-05-14T23:31:16.556Z,51.22
2023-05-14T23:33:46.713Z,52.34
2023-05-14T23:36:14.986Z,51.43
2023-05-14T23:38:43.244Z,52.24
2023-05-14T23:41:11.485Z,54.53
2023-05-14T23:43:39.842Z,57.05
2023-05-14T23:46:08.822Z,56.68
2023-05-14T23:48:37.123Z,54.30
2023-05-14T23:51:06.748Z,58.66
2023-05-14T23:53:35.059Z,59.14
2023-05-14T23:56:03.380Z,62.62
2023-05-14T23:58:32.935Z,61.25
